Aviation Digital Data Service (ADDS)

Output produced by METARs form (1008 UTC 25 October 2014)
found at http://aviationweather.gov/adds/metars/
 
KLCH 250953Z AUTO 00000KT 10SM CLR 11/09 A3012 RMK AO2 SLP208 T01060094